Airfield :
LOGIN :

Register | Disclaimer

   EN    FR    IT 

 










Legend :    VFR   Marginal VFR   IFR   Intensive IFR   Very Intensive IFR
Visi :
Ceiling :
>= 8 km
>= 3000ft
5 to 8 km
1000 to 3000 ft
1500m to 5 km
500 to 1000 ft
800 to 1500m
200 to 500 ft
< 800m
< 200 ft
Symbols :   Thunderstorms  Fog  Heavy snow  Heavy precipitations  Wind > 20 kt
SIGMETs :     Misc.  Thunderstorms  Icing  Turbulence  Mountain Waves  Volcanic Ashes






- Airport Elevation : 1475 ft


LSZC - Buochs Stans

CURRENT METAR :
  • 211420Z AUTO 00000KT 9999 BKN016 SCT025 15/13 Q1020

EXPIRED METARs :
  • 211350Z 09003KT 9999 FEW018 BKN025 15/13 Q1020
  • 211320Z VRB01KT 9999 BKN018 BKN027 15/13 Q1020
  • 211250Z 03004KT 350V050 9999 BKN020 15/13 Q1020
  • 211220Z 06005KT 9999 BKN021 SCT027 15/13 Q1020
  • 211150Z 06003KT 030V090 9999 BKN022 SCT045 16/13 Q1020

TAF TAF LSZC
Valid from the 21 at 15:00 until the 22 at 00:00 UTC


211425Z 2115/2124 VRB03KT 9999 FEW018 BKN025
TEMPO 2117/2124 4500 RA BKN014



MET'MAP, your aeronautical weather chart ! - Copyright ORBIFLY December 2007 - Disclaimer

ORBIFLY MET'MAP TEAM :

Programming & Development : Alexandra Zaïnal
Concept & Development : Baudouin d'Aumeries
Co-Development & Prog : Marc-Olivier Méhu
Technical & hardware support : Manuel Goepfert

Contact : metmap@orbifly.com




SOURCES & CREDITS :

   NOAA